• Join FlightAware (Why Join?)
  • Login
  • US Flag 
04:02PM EDT


 

Airport Tracker/Info


-or-


 

Live Flight TrackerFlight Track Log ✈ SKW6335 ✈ 22-Apr-2013 ✈ KSAN - KLAX

Flight Track Log - Related Links

Times and Time Zones

All times are in EDT time to prevent confusion due to time zone crossing. See the SKW6335 flight status page for this flight to view local times or setup timezone preferences in your user account.

Time Position Orientation Groundspeed Altitude Reporting Facility
EDT Latitude Longitude Course Direction KTS MPH feet Rate Location/Type
07:10PM 32.7833 -117.2833 308° West 184 212 3,000  Level Southern California TRACON
07:11PM 32.8167 -117.3333 308° West 194 223 4,500 1,380 Climbing Southern California TRACON
07:11PM 32.8158 -117.3328 151° Southeast 177 204 4,800 1,440 Climbing Los Angeles Center
07:12PM 32.9353 -117.3853 320° Northwest  Level FlightAware Approximate
07:12PM 32.8511 -117.3800 312° West 185 213 6,400  Level Los Angeles Center
07:13PM 32.9862 -117.4360 320° Northwest  Level FlightAware Approximate
07:13PM 32.8953 -117.4350 314° West 189 217 7,900  Level Los Angeles Center
07:14PM 33.0370 -117.4867 320° Northwest  Level FlightAware Approximate
07:14PM 32.9369 -117.4875 313° West 203 234 8,000  Level Los Angeles Center
07:15PM 32.9808 -117.5472 311° West 224 258 8,000  Level Los Angeles Center
07:16PM 33.0225 -117.6078 309° West 232 267 8,000  Level Los Angeles Center
07:17PM 33.0658 -117.6689 310° West 237 273 8,000  Level Los Angeles Center
07:18PM 33.1094 -117.7300 310° West 240 276 8,000  Level Los Angeles Center
07:19PM 33.1842 -117.7719 335° Northwest 250 288 8,000  Level Los Angeles Center
07:20PM 33.2500 -117.8019 339° North 253 291 8,000  Level Los Angeles Center
07:21PM 33.3150 -117.8333 338° Northwest 253 291 8,000  Level Los Angeles Center
07:22PM 33.3808 -117.8639 339° North 253 291 8,000  Level Los Angeles Center
07:23PM 33.4464 -117.8922 340° North 252 290 8,000  Level Los Angeles Center
07:24PM 33.5117 -117.9228 339° North 252 290 8,000 -360 Level Los Angeles Center
07:25PM 33.5914 -117.9608 338° Northwest 255 293 7,300 -540 Descending Los Angeles Center
07:26PM 33.6614 -117.9967 337° Northwest 269 310 7,000 -240 Descending Los Angeles Center
07:27PM 33.6833 -118.0000 353° North 263 303 7,000  Level Southern California TRACON
07:28PM 33.7500 -118.0333 337° Northwest 258 297 7,000  Level Southern California TRACON
07:29PM 33.8167 -118.0500 348° North 278 320 7,000 -300 Level Southern California TRACON
07:30PM 33.8833 -118.0667 348° North 262 302 6,400 -840 Descending Southern California TRACON
07:31PM 33.9500 -118.1333 320° Northwest 261 300 5,400 -1,440 Descending Southern California TRACON
07:31PM 33.9500 -118.2000 270° West 231 266 3,700 -1,920 Descending Southern California TRACON